sensor_id;sensor_type;location;lat;lon;timestamp;P1;durP1;ratioP1;P2;durP2;ratioP2
17566;SDS011;8901;52.088;5.084;2023-08-08T00:02:25;16.93;;;15.53;;
17566;SDS011;8901;52.088;5.084;2023-08-08T00:04:53;15.77;;;14.17;;
17566;SDS011;8901;52.088;5.084;2023-08-08T00:07:20;15.77;;;14.47;;
17566;SDS011;8901;52.088;5.084;2023-08-08T00:09:47;15.70;;;14.23;;
17566;SDS011;8901;52.088;5.084;2023-08-08T00:12:14;17.03;;;15.47;;
17566;SDS011;8901;52.088;5.084;2023-08-08T00:14:42;16.57;;;15.00;;
17566;SDS011;8901;52.088;5.084;2023-08-08T00:17:09;15.37;;;14.10;;
17566;SDS011;8901;52.088;5.084;2023-08-08T00:19:37;16.10;;;14.70;;
17566;SDS011;8901;52.088;5.084;2023-08-08T00:22:04;18.40;;;12.50;;
17566;SDS011;8901;52.088;5.084;2023-08-08T00:24:32;14.07;;;12.13;;
17566;SDS011;8901;52.088;5.084;2023-08-08T00:26:59;13.70;;;11.70;;
17566;SDS011;8901;52.088;5.084;2023-08-08T00:29:26;11.77;;;10.83;;
17566;SDS011;8901;52.088;5.084;2023-08-08T00:31:53;13.43;;;11.90;;
17566;SDS011;8901;52.088;5.084;2023-08-08T00:34:20;12.10;;;11.10;;
17566;SDS011;8901;52.088;5.084;2023-08-08T00:36:48;11.87;;;10.80;;
17566;SDS011;8901;52.088;5.084;2023-08-08T00:39:15;11.53;;;10.53;;
17566;SDS011;8901;52.088;5.084;2023-08-08T00:41:42;11.27;;;10.13;;
17566;SDS011;8901;52.088;5.084;2023-08-08T00:44:10;15.00;;;10.70;;
17566;SDS011;8901;52.088;5.084;2023-08-08T00:46:37;12.63;;;11.00;;
17566;SDS011;8901;52.088;5.084;2023-08-08T00:49:04;12.67;;;10.73;;
17566;SDS011;8901;52.088;5.084;2023-08-08T00:51:31;13.20;;;10.80;;
17566;SDS011;8901;52.088;5.084;2023-08-08T00:54:00;13.17;;;11.00;;
17566;SDS011;8901;52.088;5.084;2023-08-08T00:56:28;11.97;;;10.57;;
17566;SDS011;8901;52.088;5.084;2023-08-08T00:58:55;11.80;;;10.63;;
17566;SDS011;8901;52.088;5.084;2023-08-08T01:01:23;11.47;;;10.33;;
17566;SDS011;8901;52.088;5.084;2023-08-08T01:03:50;10.60;;;9.70;;
17566;SDS011;8901;52.088;5.084;2023-08-08T01:06:19;13.83;;;11.00;;
17566;SDS011;8901;52.088;5.084;2023-08-08T01:08:51;16.30;;;10.63;;
17566;SDS011;8901;52.088;5.084;2023-08-08T01:11:21;14.20;;;10.90;;
17566;SDS011;8901;52.088;5.084;2023-08-08T01:13:49;13.67;;;10.10;;
17566;SDS011;8901;52.088;5.084;2023-08-08T01:16:17;11.20;;;9.10;;
17566;SDS011;8901;52.088;5.084;2023-08-08T01:18:45;12.97;;;9.70;;
17566;SDS011;8901;52.088;5.084;2023-08-08T01:21:13;13.17;;;9.70;;
17566;SDS011;8901;52.088;5.084;2023-08-08T01:23:42;14.40;;;9.90;;
17566;SDS011;8901;52.088;5.084;2023-08-08T01:26:11;12.03;;;9.97;;
17566;SDS011;8901;52.088;5.084;2023-08-08T01:28:39;14.10;;;10.37;;
17566;SDS011;8901;52.088;5.084;2023-08-08T01:31:07;13.07;;;10.20;;
17566;SDS011;8901;52.088;5.084;2023-08-08T01:33:36;11.43;;;10.30;;
17566;SDS011;8901;52.088;5.084;2023-08-08T01:36:07;13.13;;;10.80;;
17566;SDS011;8901;52.088;5.084;2023-08-08T01:38:40;10.67;;;9.87;;
17566;SDS011;8901;52.088;5.084;2023-08-08T01:41:08;11.67;;;10.27;;
17566;SDS011;8901;52.088;5.084;2023-08-08T01:43:36;11.13;;;10.07;;
17566;SDS011;8901;52.088;5.084;2023-08-08T01:46:04;12.03;;;10.70;;
17566;SDS011;8901;52.088;5.084;2023-08-08T01:48:32;11.50;;;10.30;;
17566;SDS011;8901;52.088;5.084;2023-08-08T01:51:00;15.53;;;11.03;;
17566;SDS011;8901;52.088;5.084;2023-08-08T01:53:27;11.60;;;10.50;;
17566;SDS011;8901;52.088;5.084;2023-08-08T01:55:54;12.20;;;10.97;;
17566;SDS011;8901;52.088;5.084;2023-08-08T01:58:21;12.13;;;10.93;;
17566;SDS011;8901;52.088;5.084;2023-08-08T02:00:50;11.33;;;10.23;;
17566;SDS011;8901;52.088;5.084;2023-08-08T02:03:17;13.83;;;11.37;;
17566;SDS011;8901;52.088;5.084;2023-08-08T02:05:45;11.20;;;10.30;;
17566;SDS011;8901;52.088;5.084;2023-08-08T02:08:12;11.50;;;10.30;;
17566;SDS011;8901;52.088;5.084;2023-08-08T02:10:39;12.30;;;11.20;;
17566;SDS011;8901;52.088;5.084;2023-08-08T02:13:06;11.70;;;10.67;;
17566;SDS011;8901;52.088;5.084;2023-08-08T02:15:33;12.40;;;11.10;;
17566;SDS011;8901;52.088;5.084;2023-08-08T02:18:02;11.87;;;10.77;;
17566;SDS011;8901;52.088;5.084;2023-08-08T02:20:29;11.60;;;10.37;;
17566;SDS011;8901;52.088;5.084;2023-08-08T02:22:57;11.40;;;10.50;;
17566;SDS011;8901;52.088;5.084;2023-08-08T02:25:24;11.50;;;10.50;;
17566;SDS011;8901;52.088;5.084;2023-08-08T02:27:51;11.93;;;10.20;;
17566;SDS011;8901;52.088;5.084;2023-08-08T02:30:18;11.37;;;10.47;;
17566;SDS011;8901;52.088;5.084;2023-08-08T02:32:45;13.47;;;11.00;;
17566;SDS011;8901;52.088;5.084;2023-08-08T02:35:14;12.07;;;10.97;;
17566;SDS011;8901;52.088;5.084;2023-08-08T02:37:41;12.43;;;10.97;;
17566;SDS011;8901;52.088;5.084;2023-08-08T02:40:09;11.23;;;10.27;;
17566;SDS011;8901;52.088;5.084;2023-08-08T02:42:36;11.13;;;10.20;;
17566;SDS011;8901;52.088;5.084;2023-08-08T02:45:04;12.87;;;10.67;;
17566;SDS011;8901;52.088;5.084;2023-08-08T02:47:31;11.63;;;10.50;;
17566;SDS011;8901;52.088;5.084;2023-08-08T02:49:58;11.60;;;10.57;;
17566;SDS011;8901;52.088;5.084;2023-08-08T02:52:27;12.60;;;11.30;;
17566;SDS011;8901;52.088;5.084;2023-08-08T02:54:54;12.50;;;10.97;;
17566;SDS011;8901;52.088;5.084;2023-08-08T02:57:21;11.93;;;11.03;;
17566;SDS011;8901;52.088;5.084;2023-08-08T02:59:48;11.80;;;10.60;;
17566;SDS011;8901;52.088;5.084;2023-08-08T03:02:16;11.83;;;10.93;;
17566;SDS011;8901;52.088;5.084;2023-08-08T03:04:43;11.47;;;10.63;;
17566;SDS011;8901;52.088;5.084;2023-08-08T03:07:10;12.03;;;10.90;;
17566;SDS011;8901;52.088;5.084;2023-08-08T03:09:38;12.70;;;11.50;;
17566;SDS011;8901;52.088;5.084;2023-08-08T03:12:06;11.13;;;10.30;;
17566;SDS011;8901;52.088;5.084;2023-08-08T03:14:33;12.80;;;11.70;;
17566;SDS011;8901;52.088;5.084;2023-08-08T03:17:01;13.00;;;12.07;;
17566;SDS011;8901;52.088;5.084;2023-08-08T03:19:28;12.77;;;11.80;;
17566;SDS011;8901;52.088;5.084;2023-08-08T03:21:55;12.90;;;11.90;;
17566;SDS011;8901;52.088;5.084;2023-08-08T03:24:22;12.73;;;11.57;;
17566;SDS011;8901;52.088;5.084;2023-08-08T03:26:51;11.70;;;10.80;;
17566;SDS011;8901;52.088;5.084;2023-08-08T03:29:18;12.23;;;11.33;;
17566;SDS011;8901;52.088;5.084;2023-08-08T03:31:45;12.13;;;11.20;;
17566;SDS011;8901;52.088;5.084;2023-08-08T03:34:13;12.40;;;11.60;;
17566;SDS011;8901;52.088;5.084;2023-08-08T03:36:40;12.53;;;11.40;;
17566;SDS011;8901;52.088;5.084;2023-08-08T03:39:07;11.53;;;10.70;;
17566;SDS011;8901;52.088;5.084;2023-08-08T03:41:34;12.13;;;11.23;;
17566;SDS011;8901;52.088;5.084;2023-08-08T03:44:04;11.20;;;10.50;;
17566;SDS011;8901;52.088;5.084;2023-08-08T03:46:31;12.10;;;11.30;;
17566;SDS011;8901;52.088;5.084;2023-08-08T03:48:58;11.97;;;11.13;;
17566;SDS011;8901;52.088;5.084;2023-08-08T03:51:26;12.30;;;11.50;;
17566;SDS011;8901;52.088;5.084;2023-08-08T03:53:53;13.17;;;11.90;;
17566;SDS011;8901;52.088;5.084;2023-08-08T03:56:20;13.20;;;12.17;;
17566;SDS011;8901;52.088;5.084;2023-08-08T03:58:47;12.10;;;11.10;;
17566;SDS011;8901;52.088;5.084;2023-08-08T04:01:16;13.27;;;12.37;;
17566;SDS011;8901;52.088;5.084;2023-08-08T04:03:43;12.23;;;11.43;;
17566;SDS011;8901;52.088;5.084;2023-08-08T04:06:10;13.37;;;12.43;;
17566;SDS011;8901;52.088;5.084;2023-08-08T04:08:38;13.70;;;12.70;;
17566;SDS011;8901;52.088;5.084;2023-08-08T04:11:05;13.03;;;12.30;;
17566;SDS011;8901;52.088;5.084;2023-08-08T04:13:32;12.77;;;11.97;;
17566;SDS011;8901;52.088;5.084;2023-08-08T04:16:00;12.70;;;11.80;;
17566;SDS011;8901;52.088;5.084;2023-08-08T04:18:28;11.77;;;10.97;;
17566;SDS011;8901;52.088;5.084;2023-08-08T04:20:55;12.20;;;11.30;;
17566;SDS011;8901;52.088;5.084;2023-08-08T04:23:23;12.10;;;11.27;;
17566;SDS011;8901;52.088;5.084;2023-08-08T04:25:51;13.10;;;12.20;;
17566;SDS011;8901;52.088;5.084;2023-08-08T04:28:18;12.30;;;11.60;;
17566;SDS011;8901;52.088;5.084;2023-08-08T04:30:45;12.93;;;11.90;;
17566;SDS011;8901;52.088;5.084;2023-08-08T04:33:13;13.40;;;12.30;;
17566;SDS011;8901;52.088;5.084;2023-08-08T04:35:42;12.33;;;11.47;;
17566;SDS011;8901;52.088;5.084;2023-08-08T04:38:09;14.10;;;13.10;;
17566;SDS011;8901;52.088;5.084;2023-08-08T04:40:36;13.73;;;12.83;;
17566;SDS011;8901;52.088;5.084;2023-08-08T04:43:03;13.53;;;12.63;;
17566;SDS011;8901;52.088;5.084;2023-08-08T04:45:31;14.07;;;13.17;;
17566;SDS011;8901;52.088;5.084;2023-08-08T04:47:58;13.60;;;12.30;;
17566;SDS011;8901;52.088;5.084;2023-08-08T04:50:25;12.80;;;12.00;;
17566;SDS011;8901;52.088;5.084;2023-08-08T04:52:54;13.47;;;12.40;;
17566;SDS011;8901;52.088;5.084;2023-08-08T04:55:22;12.43;;;11.60;;
17566;SDS011;8901;52.088;5.084;2023-08-08T04:57:49;12.87;;;11.87;;
17566;SDS011;8901;52.088;5.084;2023-08-08T05:00:16;11.13;;;10.37;;
17566;SDS011;8901;52.088;5.084;2023-08-08T05:02:44;12.70;;;11.70;;
17566;SDS011;8901;52.088;5.084;2023-08-08T05:05:11;11.83;;;11.03;;
17566;SDS011;8901;52.088;5.084;2023-08-08T05:07:38;12.67;;;11.57;;
17566;SDS011;8901;52.088;5.084;2023-08-08T05:10:07;12.30;;;11.40;;
17566;SDS011;8901;52.088;5.084;2023-08-08T05:12:34;12.50;;;11.70;;
17566;SDS011;8901;52.088;5.084;2023-08-08T05:15:02;12.23;;;11.13;;
17566;SDS011;8901;52.088;5.084;2023-08-08T05:17:29;11.93;;;11.03;;
17566;SDS011;8901;52.088;5.084;2023-08-08T05:19:57;12.07;;;10.93;;
17566;SDS011;8901;52.088;5.084;2023-08-08T05:22:24;11.63;;;10.83;;
17566;SDS011;8901;52.088;5.084;2023-08-08T05:24:51;12.80;;;11.70;;
17566;SDS011;8901;52.088;5.084;2023-08-08T05:27:20;14.67;;;13.20;;
17566;SDS011;8901;52.088;5.084;2023-08-08T05:29:47;61.37;;;21.13;;
17566;SDS011;8901;52.088;5.084;2023-08-08T05:32:14;16.80;;;13.00;;
17566;SDS011;8901;52.088;5.084;2023-08-08T05:34:42;15.47;;;12.80;;
17566;SDS011;8901;52.088;5.084;2023-08-08T05:37:09;13.07;;;12.07;;
17566;SDS011;8901;52.088;5.084;2023-08-08T05:39:36;12.50;;;11.50;;
17566;SDS011;8901;52.088;5.084;2023-08-08T05:42:03;12.83;;;12.03;;
17566;SDS011;8901;52.088;5.084;2023-08-08T05:44:32;13.50;;;12.70;;
17566;SDS011;8901;52.088;5.084;2023-08-08T05:46:59;13.83;;;12.83;;
17566;SDS011;8901;52.088;5.084;2023-08-08T05:49:26;14.57;;;13.27;;
17566;SDS011;8901;52.088;5.084;2023-08-08T05:51:54;14.30;;;13.17;;
17566;SDS011;8901;52.088;5.084;2023-08-08T05:54:21;14.30;;;13.20;;
17566;SDS011;8901;52.088;5.084;2023-08-08T05:56:48;13.00;;;12.20;;
17566;SDS011;8901;52.088;5.084;2023-08-08T05:59:15;14.83;;;13.63;;
17566;SDS011;8901;52.088;5.084;2023-08-08T06:01:44;14.23;;;13.33;;
17566;SDS011;8901;52.088;5.084;2023-08-08T06:04:11;13.40;;;12.40;;
17566;SDS011;8901;52.088;5.084;2023-08-08T06:06:38;13.20;;;12.20;;
17566;SDS011;8901;52.088;5.084;2023-08-08T06:09:06;14.37;;;13.33;;
17566;SDS011;8901;52.088;5.084;2023-08-08T06:11:34;14.50;;;13.50;;
17566;SDS011;8901;52.088;5.084;2023-08-08T06:14:01;13.60;;;12.77;;
17566;SDS011;8901;52.088;5.084;2023-08-08T06:16:28;13.97;;;12.87;;
17566;SDS011;8901;52.088;5.084;2023-08-08T06:18:57;16.10;;;14.97;;
17566;SDS011;8901;52.088;5.084;2023-08-08T06:21:24;14.90;;;13.80;;
17566;SDS011;8901;52.088;5.084;2023-08-08T06:23:51;15.50;;;14.30;;
17566;SDS011;8901;52.088;5.084;2023-08-08T06:26:20;15.63;;;14.53;;
17566;SDS011;8901;52.088;5.084;2023-08-08T06:28:47;17.00;;;15.90;;
17566;SDS011;8901;52.088;5.084;2023-08-08T06:31:14;17.53;;;16.23;;
17566;SDS011;8901;52.088;5.084;2023-08-08T06:33:41;15.97;;;15.07;;
17566;SDS011;8901;52.088;5.084;2023-08-08T06:36:10;16.00;;;14.90;;
17566;SDS011;8901;52.088;5.084;2023-08-08T06:38:37;18.20;;;17.07;;
17566;SDS011;8901;52.088;5.084;2023-08-08T06:41:04;16.50;;;15.50;;
17566;SDS011;8901;52.088;5.084;2023-08-08T06:43:31;19.17;;;18.17;;
17566;SDS011;8901;52.088;5.084;2023-08-08T06:45:59;19.63;;;18.43;;
17566;SDS011;8901;52.088;5.084;2023-08-08T06:48:27;18.80;;;17.50;;
17566;SDS011;8901;52.088;5.084;2023-08-08T06:50:54;17.90;;;16.90;;
17566;SDS011;8901;52.088;5.084;2023-08-08T06:53:23;20.00;;;18.60;;
17566;SDS011;8901;52.088;5.084;2023-08-08T06:55:50;22.60;;;20.87;;
17566;SDS011;8901;52.088;5.084;2023-08-08T06:58:17;19.60;;;18.40;;
17566;SDS011;8901;52.088;5.084;2023-08-08T07:00:44;20.60;;;19.50;;
17566;SDS011;8901;52.088;5.084;2023-08-08T07:03:11;20.03;;;19.00;;
17566;SDS011;8901;52.088;5.084;2023-08-08T07:05:39;17.27;;;16.33;;
17566;SDS011;8901;52.088;5.084;2023-08-08T07:08:06;22.10;;;20.60;;
17566;SDS011;8901;52.088;5.084;2023-08-08T07:10:35;18.53;;;17.23;;
17566;SDS011;8901;52.088;5.084;2023-08-08T07:13:02;19.33;;;18.33;;
17566;SDS011;8901;52.088;5.084;2023-08-08T07:15:29;23.73;;;22.50;;
17566;SDS011;8901;52.088;5.084;2023-08-08T07:17:57;22.70;;;21.50;;
17566;SDS011;8901;52.088;5.084;2023-08-08T07:20:24;20.93;;;19.73;;
17566;SDS011;8901;52.088;5.084;2023-08-08T07:22:52;24.07;;;22.57;;
17566;SDS011;8901;52.088;5.084;2023-08-08T07:25:20;23.43;;;22.23;;
17566;SDS011;8901;52.088;5.084;2023-08-08T07:27:48;24.77;;;23.47;;
17566;SDS011;8901;52.088;5.084;2023-08-08T07:30:15;27.00;;;25.50;;
17566;SDS011;8901;52.088;5.084;2023-08-08T07:32:43;25.57;;;24.27;;
17566;SDS011;8901;52.088;5.084;2023-08-08T07:35:11;31.13;;;29.57;;
17566;SDS011;8901;52.088;5.084;2023-08-08T07:37:38;29.63;;;28.03;;
17566;SDS011;8901;52.088;5.084;2023-08-08T07:40:13;27.13;;;25.43;;
17566;SDS011;8901;52.088;5.084;2023-08-08T07:42:40;31.83;;;30.13;;
17566;SDS011;8901;52.088;5.084;2023-08-08T07:45:09;35.90;;;34.00;;
17566;SDS011;8901;52.088;5.084;2023-08-08T07:47:36;33.30;;;31.63;;
17566;SDS011;8901;52.088;5.084;2023-08-08T07:50:04;36.93;;;35.20;;
17566;SDS011;8901;52.088;5.084;2023-08-08T07:52:33;31.30;;;29.70;;
17566;SDS011;8901;52.088;5.084;2023-08-08T07:55:04;39.40;;;37.30;;
17566;SDS011;8901;52.088;5.084;2023-08-08T07:57:33;33.00;;;31.30;;
17566;SDS011;8901;52.088;5.084;2023-08-08T08:00:00;31.57;;;29.73;;
17566;SDS011;8901;52.088;5.084;2023-08-08T08:02:35;38.90;;;35.03;;
17566;SDS011;8901;52.088;5.084;2023-08-08T08:05:02;29.00;;;26.57;;
17566;SDS011;8901;52.088;5.084;2023-08-08T08:07:32;27.40;;;26.10;;
17566;SDS011;8901;52.088;5.084;2023-08-08T08:10:00;34.83;;;32.93;;
17566;SDS011;8901;52.088;5.084;2023-08-08T08:12:27;35.07;;;33.30;;
17566;SDS011;8901;52.088;5.084;2023-08-08T08:14:55;28.57;;;27.17;;
17566;SDS011;8901;52.088;5.084;2023-08-08T08:17:22;65.10;;;34.00;;
17566;SDS011;8901;52.088;5.084;2023-08-08T08:19:51;95.00;;;41.40;;
17566;SDS011;8901;52.088;5.084;2023-08-08T08:22:18;36.67;;;34.77;;
17566;SDS011;8901;52.088;5.084;2023-08-08T08:24:45;42.50;;;40.07;;
17566;SDS011;8901;52.088;5.084;2023-08-08T08:27:13;46.10;;;43.47;;
17566;SDS011;8901;52.088;5.084;2023-08-08T08:29:40;38.43;;;36.20;;
17566;SDS011;8901;52.088;5.084;2023-08-08T08:32:07;37.97;;;35.87;;
17566;SDS011;8901;52.088;5.084;2023-08-08T08:34:35;33.33;;;30.50;;
17566;SDS011;8901;52.088;5.084;2023-08-08T08:37:05;42.63;;;40.60;;
17566;SDS011;8901;52.088;5.084;2023-08-08T08:39:32;43.87;;;41.60;;
17566;SDS011;8901;52.088;5.084;2023-08-08T08:42:00;47.10;;;42.53;;
17566;SDS011;8901;52.088;5.084;2023-08-08T08:44:30;36.83;;;34.37;;
17566;SDS011;8901;52.088;5.084;2023-08-08T08:46:58;46.17;;;43.33;;
17566;SDS011;8901;52.088;5.084;2023-08-08T08:49:26;34.37;;;32.50;;
17566;SDS011;8901;52.088;5.084;2023-08-08T08:51:54;44.07;;;40.70;;
17566;SDS011;8901;52.088;5.084;2023-08-08T08:54:23;37.70;;;34.97;;
17566;SDS011;8901;52.088;5.084;2023-08-08T08:56:51;41.43;;;30.97;;
17566;SDS011;8901;52.088;5.084;2023-08-08T08:59:18;33.37;;;25.60;;
17566;SDS011;8901;52.088;5.084;2023-08-08T09:01:46;33.87;;;26.07;;
17566;SDS011;8901;52.088;5.084;2023-08-08T09:04:13;22.17;;;20.40;;
17566;SDS011;8901;52.088;5.084;2023-08-08T09:06:41;29.97;;;28.03;;
17566;SDS011;8901;52.088;5.084;2023-08-08T09:09:09;31.37;;;29.33;;
17566;SDS011;8901;52.088;5.084;2023-08-08T09:11:40;25.87;;;24.33;;
17566;SDS011;8901;52.088;5.084;2023-08-08T09:14:14;38.03;;;28.37;;
17566;SDS011;8901;52.088;5.084;2023-08-08T09:16:42;32.00;;;30.00;;
17566;SDS011;8901;52.088;5.084;2023-08-08T09:19:09;37.67;;;35.60;;
17566;SDS011;8901;52.088;5.084;2023-08-08T09:21:37;39.30;;;37.20;;
17566;SDS011;8901;52.088;5.084;2023-08-08T09:24:04;38.80;;;36.90;;
17566;SDS011;8901;52.088;5.084;2023-08-08T09:26:32;41.10;;;39.10;;
17566;SDS011;8901;52.088;5.084;2023-08-08T09:29:01;43.20;;;40.47;;
17566;SDS011;8901;52.088;5.084;2023-08-08T09:31:28;39.50;;;36.87;;
17566;SDS011;8901;52.088;5.084;2023-08-08T09:33:56;41.80;;;39.20;;
17566;SDS011;8901;52.088;5.084;2023-08-08T09:36:23;40.10;;;38.17;;
17566;SDS011;8901;52.088;5.084;2023-08-08T09:38:51;39.10;;;37.07;;
17566;SDS011;8901;52.088;5.084;2023-08-08T09:41:18;41.03;;;38.97;;
17566;SDS011;8901;52.088;5.084;2023-08-08T09:43:47;48.40;;;44.43;;
17566;SDS011;8901;52.088;5.084;2023-08-08T09:46:15;37.23;;;34.90;;
17566;SDS011;8901;52.088;5.084;2023-08-08T09:48:42;147.07;;;51.87;;
17566;SDS011;8901;52.088;5.084;2023-08-08T09:51:10;35.40;;;33.13;;
17566;SDS011;8901;52.088;5.084;2023-08-08T09:53:37;31.30;;;29.20;;
17566;SDS011;8901;52.088;5.084;2023-08-08T09:56:05;26.03;;;24.50;;
17566;SDS011;8901;52.088;5.084;2023-08-08T09:58:32;23.27;;;21.80;;
17566;SDS011;8901;52.088;5.084;2023-08-08T10:01:00;16.47;;;15.47;;
17566;SDS011;8901;52.088;5.084;2023-08-08T10:03:31;15.40;;;14.47;;
17566;SDS011;8901;52.088;5.084;2023-08-08T10:05:58;13.50;;;12.43;;
17566;SDS011;8901;52.088;5.084;2023-08-08T10:08:25;12.57;;;11.80;;
17566;SDS011;8901;52.088;5.084;2023-08-08T10:10:53;11.00;;;10.30;;
17566;SDS011;8901;52.088;5.084;2023-08-08T10:13:20;11.20;;;10.50;;
17566;SDS011;8901;52.088;5.084;2023-08-08T10:15:48;10.90;;;10.20;;
17566;SDS011;8901;52.088;5.084;2023-08-08T10:18:15;10.73;;;9.93;;
17566;SDS011;8901;52.088;5.084;2023-08-08T10:20:46;10.17;;;9.27;;
17566;SDS011;8901;52.088;5.084;2023-08-08T10:23:14;9.73;;;9.07;;
17566;SDS011;8901;52.088;5.084;2023-08-08T10:25:43;10.30;;;9.63;;
17566;SDS011;8901;52.088;5.084;2023-08-08T10:28:11;9.70;;;8.90;;
17566;SDS011;8901;52.088;5.084;2023-08-08T10:30:43;9.80;;;9.10;;
17566;SDS011;8901;52.088;5.084;2023-08-08T10:33:17;9.60;;;8.90;;
17566;SDS011;8901;52.088;5.084;2023-08-08T10:35:56;10.30;;;9.40;;
17566;SDS011;8901;52.088;5.084;2023-08-08T10:38:24;9.57;;;8.97;;
17566;SDS011;8901;52.088;5.084;2023-08-08T10:40:57;9.63;;;8.73;;
17566;SDS011;8901;52.088;5.084;2023-08-08T10:43:25;9.83;;;9.33;;
17566;SDS011;8901;52.088;5.084;2023-08-08T10:45:56;10.00;;;9.40;;
17566;SDS011;8901;52.088;5.084;2023-08-08T10:48:24;9.80;;;9.10;;
17566;SDS011;8901;52.088;5.084;2023-08-08T10:50:53;9.90;;;9.20;;
17566;SDS011;8901;52.088;5.084;2023-08-08T10:53:23;9.50;;;8.90;;
17566;SDS011;8901;52.088;5.084;2023-08-08T10:55:56;9.60;;;8.90;;
17566;SDS011;8901;52.088;5.084;2023-08-08T10:58:34;8.77;;;8.23;;
17566;SDS011;8901;52.088;5.084;2023-08-08T11:01:01;8.50;;;7.90;;
17566;SDS011;8901;52.088;5.084;2023-08-08T11:03:32;9.70;;;9.10;;
17566;SDS011;8901;52.088;5.084;2023-08-08T11:06:00;10.33;;;9.63;;
17566;SDS011;8901;52.088;5.084;2023-08-08T11:08:30;10.40;;;9.60;;
17566;SDS011;8901;52.088;5.084;2023-08-08T11:10:57;9.20;;;8.50;;
17566;SDS011;8901;52.088;5.084;2023-08-08T11:13:25;9.30;;;8.70;;
17566;SDS011;8901;52.088;5.084;2023-08-08T11:15:52;9.93;;;9.30;;
17566;SDS011;8901;52.088;5.084;2023-08-08T11:18:20;10.60;;;9.90;;
17566;SDS011;8901;52.088;5.084;2023-08-08T11:20:48;9.90;;;9.30;;
17566;SDS011;8901;52.088;5.084;2023-08-08T11:23:15;19.43;;;15.67;;
17566;SDS011;8901;52.088;5.084;2023-08-08T11:25:45;11.43;;;10.83;;
17566;SDS011;8901;52.088;5.084;2023-08-08T11:28:12;11.40;;;10.67;;
17566;SDS011;8901;52.088;5.084;2023-08-08T11:30:40;10.83;;;10.23;;
17566;SDS011;8901;52.088;5.084;2023-08-08T11:33:08;13.60;;;12.90;;
17566;SDS011;8901;52.088;5.084;2023-08-08T11:35:35;10.27;;;9.57;;
17566;SDS011;8901;52.088;5.084;2023-08-08T11:38:03;11.57;;;10.90;;
17566;SDS011;8901;52.088;5.084;2023-08-08T11:40:31;11.80;;;11.03;;
17566;SDS011;8901;52.088;5.084;2023-08-08T11:42:59;10.90;;;10.00;;
17566;SDS011;8901;52.088;5.084;2023-08-08T11:45:27;14.13;;;13.23;;
17566;SDS011;8901;52.088;5.084;2023-08-08T11:47:54;10.23;;;9.50;;
17566;SDS011;8901;52.088;5.084;2023-08-08T11:50:22;9.00;;;8.50;;
17566;SDS011;8901;52.088;5.084;2023-08-08T11:52:50;11.03;;;10.33;;
17566;SDS011;8901;52.088;5.084;2023-08-08T11:55:18;10.23;;;9.63;;
17566;SDS011;8901;52.088;5.084;2023-08-08T11:57:47;25.17;;;23.83;;
17566;SDS011;8901;52.088;5.084;2023-08-08T12:00:17;13.60;;;12.70;;
17566;SDS011;8901;52.088;5.084;2023-08-08T12:02:44;10.10;;;9.20;;
17566;SDS011;8901;52.088;5.084;2023-08-08T12:05:12;12.43;;;11.73;;
17566;SDS011;8901;52.088;5.084;2023-08-08T12:07:42;13.47;;;12.77;;
17566;SDS011;8901;52.088;5.084;2023-08-08T12:10:14;12.77;;;12.13;;
17566;SDS011;8901;52.088;5.084;2023-08-08T12:12:42;10.60;;;10.00;;
17566;SDS011;8901;52.088;5.084;2023-08-08T12:15:10;12.13;;;11.40;;
17566;SDS011;8901;52.088;5.084;2023-08-08T12:17:38;18.30;;;17.20;;
17566;SDS011;8901;52.088;5.084;2023-08-08T12:20:07;10.73;;;9.87;;
17566;SDS011;8901;52.088;5.084;2023-08-08T12:22:35;11.40;;;10.80;;
17566;SDS011;8901;52.088;5.084;2023-08-08T12:25:03;12.47;;;11.57;;
17566;SDS011;8901;52.088;5.084;2023-08-08T12:27:30;12.87;;;12.07;;
17566;SDS011;8901;52.088;5.084;2023-08-08T12:29:57;13.30;;;12.60;;
17566;SDS011;8901;52.088;5.084;2023-08-08T12:32:25;10.40;;;9.60;;
17566;SDS011;8901;52.088;5.084;2023-08-08T12:34:55;11.10;;;10.20;;
17566;SDS011;8901;52.088;5.084;2023-08-08T12:37:22;14.07;;;13.37;;
17566;SDS011;8901;52.088;5.084;2023-08-08T12:39:50;9.73;;;9.00;;
17566;SDS011;8901;52.088;5.084;2023-08-08T12:42:17;11.10;;;10.10;;
17566;SDS011;8901;52.088;5.084;2023-08-08T12:44:44;10.30;;;9.70;;
17566;SDS011;8901;52.088;5.084;2023-08-08T12:47:12;9.80;;;9.20;;
17566;SDS011;8901;52.088;5.084;2023-08-08T12:49:39;10.20;;;9.50;;
17566;SDS011;8901;52.088;5.084;2023-08-08T12:52:08;10.40;;;9.70;;
17566;SDS011;8901;52.088;5.084;2023-08-08T12:54:35;8.90;;;8.33;;
17566;SDS011;8901;52.088;5.084;2023-08-08T12:57:03;11.57;;;10.87;;
17566;SDS011;8901;52.088;5.084;2023-08-08T12:59:30;12.47;;;11.77;;
17566;SDS011;8901;52.088;5.084;2023-08-08T13:01:57;10.40;;;9.70;;
17566;SDS011;8901;52.088;5.084;2023-08-08T13:04:25;9.37;;;8.57;;
17566;SDS011;8901;52.088;5.084;2023-08-08T13:06:52;10.30;;;9.60;;
17566;SDS011;8901;52.088;5.084;2023-08-08T13:09:21;9.47;;;8.60;;
17566;SDS011;8901;52.088;5.084;2023-08-08T13:11:48;10.13;;;9.43;;
17566;SDS011;8901;52.088;5.084;2023-08-08T13:14:15;10.40;;;9.73;;
17566;SDS011;8901;52.088;5.084;2023-08-08T13:16:42;10.97;;;10.00;;
17566;SDS011;8901;52.088;5.084;2023-08-08T13:19:11;11.40;;;10.70;;
17566;SDS011;8901;52.088;5.084;2023-08-08T13:21:38;10.20;;;9.37;;
17566;SDS011;8901;52.088;5.084;2023-08-08T13:24:05;10.03;;;9.33;;
17566;SDS011;8901;52.088;5.084;2023-08-08T13:26:36;11.87;;;10.97;;
17566;SDS011;8901;52.088;5.084;2023-08-08T13:29:03;13.60;;;12.60;;
17566;SDS011;8901;52.088;5.084;2023-08-08T13:31:30;14.27;;;13.10;;
17566;SDS011;8901;52.088;5.084;2023-08-08T13:33:58;9.90;;;9.10;;
17566;SDS011;8901;52.088;5.084;2023-08-08T13:36:25;10.97;;;10.27;;
17566;SDS011;8901;52.088;5.084;2023-08-08T13:38:52;10.23;;;9.57;;
17566;SDS011;8901;52.088;5.084;2023-08-08T13:41:19;13.47;;;12.67;;
17566;SDS011;8901;52.088;5.084;2023-08-08T13:43:48;11.17;;;10.57;;
17566;SDS011;8901;52.088;5.084;2023-08-08T13:46:15;10.20;;;9.23;;
17566;SDS011;8901;52.088;5.084;2023-08-08T13:48:42;10.23;;;9.43;;
17566;SDS011;8901;52.088;5.084;2023-08-08T13:51:10;10.83;;;10.03;;
17566;SDS011;8901;52.088;5.084;2023-08-08T13:53:37;9.20;;;8.60;;
17566;SDS011;8901;52.088;5.084;2023-08-08T13:56:04;11.13;;;10.43;;
17566;SDS011;8901;52.088;5.084;2023-08-08T13:58:31;10.77;;;9.90;;
17566;SDS011;8901;52.088;5.084;2023-08-08T14:01:00;12.00;;;11.20;;
17566;SDS011;8901;52.088;5.084;2023-08-08T14:03:27;11.73;;;10.90;;
17566;SDS011;8901;52.088;5.084;2023-08-08T14:05:54;11.43;;;10.83;;
17566;SDS011;8901;52.088;5.084;2023-08-08T14:08:22;10.40;;;9.77;;
17566;SDS011;8901;52.088;5.084;2023-08-08T14:10:50;10.73;;;10.13;;
17566;SDS011;8901;52.088;5.084;2023-08-08T14:13:17;10.63;;;9.93;;
17566;SDS011;8901;52.088;5.084;2023-08-08T14:15:45;18.73;;;17.73;;
17566;SDS011;8901;52.088;5.084;2023-08-08T14:18:14;16.03;;;15.03;;
17566;SDS011;8901;52.088;5.084;2023-08-08T14:20:41;11.30;;;10.60;;
17566;SDS011;8901;52.088;5.084;2023-08-08T14:23:08;12.00;;;11.20;;
17566;SDS011;8901;52.088;5.084;2023-08-08T14:25:35;21.83;;;20.57;;
17566;SDS011;8901;52.088;5.084;2023-08-08T14:28:03;11.63;;;10.93;;
17566;SDS011;8901;52.088;5.084;2023-08-08T14:30:30;12.17;;;11.27;;
17566;SDS011;8901;52.088;5.084;2023-08-08T14:32:58;12.10;;;11.20;;
17566;SDS011;8901;52.088;5.084;2023-08-08T14:35:26;11.93;;;11.30;;
17566;SDS011;8901;52.088;5.084;2023-08-08T14:37:53;10.83;;;10.13;;
17566;SDS011;8901;52.088;5.084;2023-08-08T14:40:20;11.25;;;10.35;;
17566;SDS011;8901;52.088;5.084;2023-08-08T14:42:48;12.00;;;11.13;;